Sunday, April 22, 2018, 5:44 PM EDT
Back to Local

KEWR, Newark International Airport

Location: Elizabeth, NJ, United States Lat: 40.683
Local Time: 5:44 PM EDT (21:44 GMT) Lon: -74.167
Time Zone: US/Eastern Elev: 16 ft

Show me the last for .
Show Coded

Time T Td Feel RH Dir Speed Gust Alt SLP Vis Weather Sky Remarks
2018-04-22 16:51 63 34 - 33 150° 15 - 30.31 30.31 10 FEW250 None
2018-04-22 15:51 68 38 - 33 320° 13 16 30.32 30.32 10 SCT250 None
2018-04-22 14:51 66 36 - 32 320° 6 - 30.34 30.34 10 SCT250 None
2018-04-22 13:51 66 36 - 32 300° 5 21 30.36 30.36 10 SCT250 6-hr Min Temp (2pm): 50.0°F
6-hr Max Temp (2pm): 66.0°F
2018-04-22 12:51 64 34 - 32 Variable 5 - 30.37 30.37 10 FEW250 None
2018-04-22 11:51 62 34 - 34 340° 10 - 30.39 30.39 10 FEW250 None
2018-04-22 10:51 60 32 - 34 310° 9 - 30.41 30.41 10 FEW250 None
2018-04-22 09:51 58 30 - 34 Variable 5 - 30.42 30.41 10 FEW250 None
2018-04-22 08:51 54 26 - 33 260° 5 - 30.42 30.41 10 FEW250 None
2018-04-22 07:51 50 22 49 32 270° 3 - 30.41 30.41 10 FEW250 6-hr Min Temp (8am): 42.1°F
6-hr Max Temp (8am): 51.1°F
2018-04-22 06:51 46 20 - 35 - Calm - 30.41 30.41 10 FEW250 None
2018-04-22 05:51 44 18 43 34 350° 3 - 30.39 30.38 10 FEW250 None
2018-04-22 04:51 46 19 41 33 340° 9 - 30.38 30.37 10 SCT250 None
2018-04-22 03:51 48 20 44 32 340° 8 - 30.39 30.38 10 SCT250 None
2018-04-22 02:51 49 20 45 31 340° 9 - 30.38 30.37 10 SCT250 None
2018-04-22 01:51 51 22 - 31 330° 12 - 30.37 30.36 10 SCT250 6-hr Min Temp (2am): 50.0°F
6-hr Max Temp (2am): 60.1°F
2018-04-22 00:51 52 24 - 33 350° 10 - 30.36 30.36 10 BKN250 24-hr Min Temp (1am): 37.0°F
24-hr Max Temp (1am): 64.0°F
2018-04-21 23:51 54 26 - 33 330° 10 - 30.35 30.35 10 BKN250 None
2018-04-21 22:51 55 27 - 33 310° 10 - 30.34 30.34 10 BKN250 None
2018-04-21 21:51 57 28 - 32 330° 13 - 30.33 30.33 10 BKN250 None
2018-04-21 20:51 58 30 - 34 320° 12 - 30.31 30.31 10 BKN250 None
2018-04-21 19:51 60 31 - 33 330° 12 - 30.29 30.29 10 BKN250 6-hr Min Temp (8pm): 60.1°F
6-hr Max Temp (8pm): 64.0°F
2018-04-21 18:51 61 32 - 33 290° 15 - 30.26 30.26 10 BKN250 None
2018-04-21 17:51 62 33 - 33 290° 16 - 30.26 30.25 10 BKN250 None

Support USWX by starting your Amazon purchase here.